Time;durP1;ratioP1;P1;durP2;ratioP2;P2;SDS_P1;SDS_P2;PMS_P1;PMS_P2;Temp;Humidity;BMP_temperature;BMP_pressure;BME280_temperature;BME280_humidity;BME280_pressure;Samples;Min_cycle;Max_cycle;Signal;HPM_P1;HPM_P2
2023/02/09 00:02:21;;;;;;;111.50;47.00;;;;;;;-11.20;100.00;102303.34;107702;1276;22582;-65
2023/02/09 00:04:50;;;;;;;106.40;42.90;;;;;;;-11.17;100.00;102307.41;110402;1275;22215;-66
2023/02/09 00:07:18;;;;;;;101.70;45.50;;;;;;;-11.18;100.00;102306.73;110268;1276;23054;-65
2023/02/09 00:09:47;;;;;;;109.80;47.60;;;;;;;-11.17;100.00;102307.23;110201;1270;22298;-65
2023/02/09 00:15:03;;;;;;;109.70;47.40;;;;;;;-11.12;100.00;102307.16;110250;1270;22324;-65
2023/02/09 00:17:34;;;;;;;114.70;49.00;;;;;;;-11.11;100.00;102306.58;110412;1267;22402;-66
2023/02/09 00:20:04;;;;;;;109.60;46.40;;;;;;;-11.09;100.00;102305.95;110446;1267;22359;-65
2023/02/09 00:22:32;;;;;;;114.20;49.40;;;;;;;-11.09;100.00;102299.66;110414;1274;22469;-65
2023/02/09 00:25:00;;;;;;;114.80;48.90;;;;;;;-11.07;100.00;102297.66;109927;1274;24195;-65
2023/02/09 00:27:29;;;;;;;111.50;48.10;;;;;;;-11.06;100.00;102294.07;107941;1270;23013;-64
2023/02/09 00:29:57;;;;;;;107.10;44.40;;;;;;;-11.02;100.00;102287.07;107866;1269;22919;-63
2023/02/09 00:32:25;;;;;;;111.70;44.50;;;;;;;-10.99;100.00;102284.61;107835;1270;22647;-64
2023/02/09 00:34:54;;;;;;;107.40;46.20;;;;;;;-10.98;100.00;102280.56;107976;1274;22553;-64
2023/02/09 00:37:22;;;;;;;112.50;47.60;;;;;;;-10.98;100.00;102281.77;107868;1274;23399;-64
2023/02/09 00:39:50;;;;;;;105.10;44.10;;;;;;;-10.98;100.00;102281.46;107832;1275;25476;-65
2023/02/09 00:42:19;;;;;;;98.00;41.50;;;;;;;-10.99;100.00;102273.23;107728;1270;26291;-65
2023/02/09 00:44:47;;;;;;;103.10;42.90;;;;;;;-10.98;100.00;102267.56;107652;1275;25309;-65
2023/02/09 00:47:15;;;;;;;98.70;42.70;;;;;;;-10.97;100.00;102265.75;107629;1274;22615;-66
2023/02/09 00:49:44;;;;;;;99.00;42.10;;;;;;;-10.95;100.00;102266.54;107742;1270;22535;-65
2023/02/09 00:52:12;;;;;;;100.30;42.00;;;;;;;-10.93;100.00;102267.48;107732;1269;22563;-65
2023/02/09 00:54:40;;;;;;;99.80;42.10;;;;;;;-10.90;100.00;102266.46;107789;1274;25255;-66
2023/02/09 00:57:08;;;;;;;97.30;40.90;;;;;;;-10.90;100.00;102269.09;107711;1274;22715;-65
2023/02/09 00:59:39;;;;;;;92.30;40.70;;;;;;;-10.91;100.00;102270.73;107698;1274;23268;-63
2023/02/09 01:02:09;;;;;;;94.40;39.70;;;;;;;-10.92;100.00;102273.95;106923;1274;25302;-63
2023/02/09 01:04:39;;;;;;;94.30;40.80;;;;;;;-10.95;100.00;102273.74;107144;1270;25325;-63
2023/02/09 01:07:08;;;;;;;96.00;41.70;;;;;;;-10.98;100.00;102269.31;107890;1269;23588;-64
2023/02/09 01:09:36;;;;;;;84.70;38.30;;;;;;;-11.00;100.00;102268.73;107818;1273;22763;-64
2023/02/09 01:12:10;;;;;;;90.40;38.50;;;;;;;-11.02;100.00;102262.54;106905;1270;25312;-64
2023/02/09 01:14:38;;;;;;;74.60;34.00;;;;;;;-11.06;100.00;102261.99;106938;1267;23774;-64
2023/02/09 01:17:07;;;;;;;72.20;33.70;;;;;;;-11.08;100.00;102261.04;107628;1267;23769;-64
2023/02/09 01:19:36;;;;;;;75.90;34.00;;;;;;;-11.09;100.00;102258.14;106999;1268;22539;-64
2023/02/09 01:22:05;;;;;;;81.30;36.60;;;;;;;-11.16;100.00;102250.52;110344;1267;23127;-64
2023/02/09 01:24:33;;;;;;;76.20;36.30;;;;;;;-11.28;100.00;102250.04;110309;1267;23238;-65
2023/02/09 01:27:01;;;;;;;91.30;42.00;;;;;;;-11.38;100.00;102248.95;110360;1269;22652;-65
2023/02/09 01:29:31;;;;;;;113.90;55.90;;;;;;;-11.45;100.00;102245.42;110338;1270;22437;-65
2023/02/09 01:32:00;;;;;;;84.50;43.70;;;;;;;-11.46;100.00;102243.20;110416;1270;23235;-65
2023/02/09 01:34:29;;;;;;;73.90;39.20;;;;;;;-11.44;100.00;102236.64;110420;1267;24237;-65
2023/02/09 01:36:57;;;;;;;70.20;36.70;;;;;;;-11.40;100.00;102239.77;110367;1267;22370;-65
2023/02/09 01:39:26;;;;;;;73.70;37.40;;;;;;;-11.36;100.00;102238.18;110467;1267;22325;-65
2023/02/09 01:41:55;;;;;;;68.10;33.80;;;;;;;-11.34;100.00;102232.83;109132;1273;22594;-64
2023/02/09 01:44:23;;;;;;;59.80;29.60;;;;;;;-11.32;100.00;102233.23;108395;1273;23302;-64
2023/02/09 01:46:51;;;;;;;56.50;27.50;;;;;;;-11.30;100.00;102236.84;107720;1268;22517;-64
2023/02/09 01:49:21;;;;;;;56.70;29.10;;;;;;;-11.33;100.00;102233.98;107763;1267;24224;-65
2023/02/09 01:51:54;;;;;;;55.90;27.70;;;;;;;-11.39;100.00;102231.45;107553;1267;22523;-64
2023/02/09 01:54:36;;;;;;;53.50;24.50;;;;;;;-11.40;100.00;102233.45;107509;1273;25334;-64
2023/02/09 01:57:17;;;;;;;50.80;25.60;;;;;;;-11.42;100.00;102231.98;107579;1269;22533;-64
2023/02/09 01:59:49;;;;;;;51.90;24.50;;;;;;;-11.43;100.00;102223.60;107690;1273;24262;-68
2023/02/09 02:02:17;;;;;;;50.20;25.40;;;;;;;-11.45;100.00;102218.62;107651;1274;22620;-64
2023/02/09 02:04:49;;;;;;;49.80;25.00;;;;;;;-11.49;100.00;102213.58;108757;1270;25385;-65
2023/02/09 02:07:46;;;;;;;54.40;24.90;;;;;;;-11.52;100.00;102214.94;107697;1273;25343;-64
2023/02/09 02:10:14;;;;;;;52.70;24.90;;;;;;;-11.53;100.00;102217.95;107590;1267;22524;-65
2023/02/09 02:12:43;;;;;;;57.50;27.20;;;;;;;-11.54;100.00;102220.08;107754;1267;24193;-64
2023/02/09 02:15:11;;;;;;;48.70;24.20;;;;;;;-11.53;100.00;102217.77;107798;1271;22866;-65
2023/02/09 02:18:09;;;;;;;52.80;24.60;;;;;;;-11.52;100.00;102211.41;107963;1270;25451;-65
2023/02/09 02:21:22;;;;;;;56.60;25.60;;;;;;;-11.52;100.00;102215.29;107442;1268;26468;-65
2023/02/09 02:24:23;;;;;;;53.30;24.80;;;;;;;-11.55;100.00;102222.61;107743;1267;25265;-65
2023/02/09 02:26:59;;;;;;;56.10;26.10;;;;;;;-11.58;100.00;102219.96;107703;1271;23136;-64
2023/02/09 02:29:50;;;;;;;54.40;24.80;;;;;;;-11.59;100.00;102215.61;107719;1268;22538;-63
2023/02/09 02:32:26;;;;;;;51.00;24.90;;;;;;;-11.61;100.00;102217.23;107717;1274;24368;-63
2023/02/09 02:35:19;;;;;;;55.70;26.80;;;;;;;-11.61;100.00;102215.33;107646;1273;22569;-63
2023/02/09 02:37:53;;;;;;;57.50;28.50;;;;;;;-11.63;100.00;102209.29;107697;1273;25474;-64
2023/02/09 02:40:42;;;;;;;57.20;28.50;;;;;;;-11.66;100.00;102211.36;110347;1267;23213;-65
2023/02/09 02:43:21;;;;;;;54.50;28.40;;;;;;;-11.67;100.00;102208.59;110423;1267;22494;-65
2023/02/09 02:46:02;;;;;;;51.80;27.10;;;;;;;-11.68;100.00;102205.48;110260;1273;22480;-64
2023/02/09 02:48:59;;;;;;;56.70;28.20;;;;;;;-11.67;100.00;102204.41;110292;1273;22400;-65
2023/02/09 02:51:37;;;;;;;51.70;26.00;;;;;;;-11.64;100.00;102205.12;109454;1268;24172;-65
2023/02/09 02:54:08;;;;;;;45.50;23.10;;;;;;;-11.65;100.00;102205.67;107664;1267;26471;-64
2023/02/09 02:56:40;;;;;;;44.40;23.20;;;;;;;-11.62;100.00;102210.27;107738;1268;23854;-65
2023/02/09 02:59:11;;;;;;;46.80;22.40;;;;;;;-11.65;100.00;102209.52;107758;1273;22640;-64
2023/02/09 03:01:46;;;;;;;50.50;25.20;;;;;;;-11.62;100.00;102210.48;107798;1270;22531;-64
2023/02/09 03:04:14;;;;;;;47.40;23.30;;;;;;;-11.63;100.00;102199.83;107693;1271;25395;-65
2023/02/09 03:06:43;;;;;;;48.40;22.80;;;;;;;-11.66;100.00;102198.55;107524;1273;23260;-65
2023/02/09 03:09:12;;;;;;;51.40;24.20;;;;;;;-11.65;100.00;102204.27;107758;1274;24359;-65
2023/02/09 03:11:51;;;;;;;43.70;21.90;;;;;;;-11.62;100.00;102199.23;107848;1267;25332;-65
2023/02/09 03:14:40;;;;;;;49.60;23.80;;;;;;;-11.58;100.00;102194.52;110433;1267;22334;-65
2023/02/09 03:17:34;;;;;;;48.80;23.80;;;;;;;-11.53;100.00;102199.02;110338;1269;22411;-65
2023/02/09 03:20:25;;;;;;;49.00;23.30;;;;;;;-11.50;100.00;102197.83;110426;1270;22326;-65
2023/02/09 03:22:57;;;;;;;45.80;22.70;;;;;;;-11.49;100.00;102185.34;110321;1273;22485;-65
2023/02/09 03:25:30;;;;;;;50.40;24.60;;;;;;;-11.49;100.00;102180.98;110363;1272;22740;-66
2023/02/09 03:28:07;;;;;;;54.40;25.30;;;;;;;-11.48;100.00;102179.34;110239;1270;22506;-66
2023/02/09 03:30:35;;;;;;;53.00;25.30;;;;;;;-11.48;100.00;102180.36;109339;1267;24211;-65
2023/02/09 03:33:04;;;;;;;57.30;26.60;;;;;;;-11.50;100.00;102182.41;107642;1270;22540;-64
2023/02/09 03:35:37;;;;;;;54.00;25.70;;;;;;;-11.51;100.00;102179.98;107653;1267;27794;-65
2023/02/09 03:38:06;;;;;;;47.10;23.20;;;;;;;-11.52;100.00;102180.04;107640;1274;25522;-64
2023/02/09 03:40:36;;;;;;;51.00;23.30;;;;;;;-11.57;100.00;102183.79;107722;1267;23362;-64
2023/02/09 03:43:05;;;;;;;48.10;22.80;;;;;;;-11.60;100.00;102181.13;107659;1270;26137;-65
2023/02/09 03:45:34;;;;;;;47.50;21.90;;;;;;;-11.60;100.00;102176.55;107662;1274;25325;-64
2023/02/09 03:48:04;;;;;;;46.10;22.40;;;;;;;-11.61;100.00;102178.19;107523;1274;22559;-65
2023/02/09 03:50:35;;;;;;;47.70;22.00;;;;;;;-11.61;100.00;102176.40;107761;1273;23759;-64
2023/02/09 03:53:05;;;;;;;47.90;22.90;;;;;;;-11.61;100.00;102177.46;107673;1275;26499;-65
2023/02/09 03:55:35;;;;;;;43.60;21.90;;;;;;;-11.62;100.00;102180.65;107770;1267;22569;-64
2023/02/09 03:58:05;;;;;;;43.40;21.60;;;;;;;-11.63;100.00;102180.39;107795;1267;25376;-64
2023/02/09 04:00:34;;;;;;;44.30;20.90;;;;;;;-11.65;100.00;102183.96;106956;1272;26364;-63
2023/02/09 04:03:02;;;;;;;38.40;19.40;;;;;;;-11.69;100.00;102184.17;107632;1273;23235;-64
2023/02/09 04:05:31;;;;;;;38.90;20.10;;;;;;;-11.75;100.00;102186.23;110493;1274;23533;-65
2023/02/09 04:08:01;;;;;;;40.60;19.30;;;;;;;-11.78;100.00;102184.43;110483;1267;23280;-64
2023/02/09 04:10:29;;;;;;;39.10;19.30;;;;;;;-11.76;100.00;102188.20;110472;1267;23154;-65
2023/02/09 04:12:58;;;;;;;45.00;20.80;;;;;;;-11.72;100.00;102189.25;110378;1267;22320;-64
2023/02/09 04:15:26;;;;;;;45.80;21.20;;;;;;;-11.72;100.00;102187.81;110421;1267;23281;-64
2023/02/09 04:17:54;;;;;;;42.00;20.70;;;;;;;-11.70;100.00;102187.40;109528;1267;23549;-65
2023/02/09 04:20:23;;;;;;;37.90;18.60;;;;;;;-11.69;100.00;102183.83;109179;1268;25392;-64
2023/02/09 04:22:52;;;;;;;35.10;18.70;;;;;;;-11.70;100.00;102187.70;107699;1269;23275;-64
2023/02/09 04:25:20;;;;;;;39.40;17.90;;;;;;;-11.71;100.00;102185.52;107638;1269;25484;-63
2023/02/09 04:27:48;;;;;;;39.70;19.30;;;;;;;-11.74;100.00;102181.44;107771;1267;23360;-65
2023/02/09 04:30:17;;;;;;;35.80;18.40;;;;;;;-11.78;100.00;102181.29;107755;1270;26123;-65
2023/02/09 04:32:46;;;;;;;38.30;17.70;;;;;;;-11.79;100.00;102183.77;107752;1267;23304;-65
2023/02/09 04:35:15;;;;;;;38.60;19.30;;;;;;;-11.78;100.00;102179.20;107545;1267;26602;-63
2023/02/09 04:37:43;;;;;;;36.90;18.70;;;;;;;-11.79;100.00;102175.89;107451;1270;23354;-64
2023/02/09 04:40:12;;;;;;;42.80;19.70;;;;;;;-11.77;100.00;102176.00;107106;1273;23409;-63
2023/02/09 04:42:44;;;;;;;35.90;18.60;;;;;;;-11.77;100.00;102175.45;107811;1267;24203;-64
2023/02/09 04:45:13;;;;;;;40.50;19.70;;;;;;;-11.77;100.00;102171.95;107791;1268;22574;-64
2023/02/09 04:47:41;;;;;;;42.80;20.10;;;;;;;-11.82;100.00;102164.66;107692;1273;23745;-63
2023/02/09 04:50:10;;;;;;;45.80;22.10;;;;;;;-11.86;100.00;102165.02;107689;1267;22886;-64
2023/02/09 04:52:39;;;;;;;41.90;20.10;;;;;;;-11.87;100.00;102164.03;108014;1267;26538;-64
2023/02/09 04:55:07;;;;;;;45.50;21.30;;;;;;;-11.88;100.00;102153.02;107834;1267;22550;-63
2023/02/09 05:00:24;;;;;;;48.10;22.80;;;;;;;-11.97;100.00;102147.17;106802;1267;26859;-64
2023/02/09 05:02:53;;;;;;;46.60;22.10;;;;;;;-12.00;100.00;102154.48;106765;1267;25322;-64
2023/02/09 05:05:22;;;;;;;50.50;23.30;;;;;;;-12.05;100.00;102153.45;107885;1257;23440;-63
2023/02/09 05:07:50;;;;;;;43.50;21.00;;;;;;;-12.10;100.00;102153.16;107083;1267;26490;-64
2023/02/09 05:10:19;;;;;;;44.70;21.80;;;;;;;-12.15;100.00;102153.39;107006;1270;25417;-61
2023/02/09 05:12:48;;;;;;;46.50;22.40;;;;;;;-12.18;100.00;102152.13;106944;1267;25373;-61
2023/02/09 05:15:17;;;;;;;44.00;19.90;;;;;;;-12.18;100.00;102148.63;110284;1269;23112;-62
2023/02/09 05:17:45;;;;;;;41.70;19.90;;;;;;;-12.15;100.00;102150.77;110368;1267;22419;-64
2023/02/09 05:20:13;;;;;;;40.80;20.60;;;;;;;-12.09;100.00;102153.51;110394;1267;23073;-64
2023/02/09 05:22:45;;;;;;;40.50;20.70;;;;;;;-12.05;100.00;102155.89;110412;1266;22368;-64
2023/02/09 05:25:13;;;;;;;45.00;19.40;;;;;;;-12.03;100.00;102158.80;110425;1267;22276;-64
2023/02/09 05:27:41;;;;;;;41.10;19.90;;;;;;;-12.04;100.00;102159.41;110464;1270;22456;-64
2023/02/09 05:30:10;;;;;;;36.70;18.20;;;;;;;-12.02;100.00;102151.90;108833;1267;24242;-63
2023/02/09 05:32:38;;;;;;;45.10;20.00;;;;;;;-11.93;100.00;102147.49;107979;1267;22529;-64
2023/02/09 05:35:07;;;;;;;38.20;18.50;;;;;;;-11.82;100.00;102149.09;108084;1269;22644;-64
2023/02/09 05:37:35;;;;;;;42.00;20.10;;;;;;;-11.73;100.00;102143.02;107943;1267;23440;-64
2023/02/09 05:40:04;;;;;;;41.40;19.30;;;;;;;-11.66;100.00;102145.98;107757;1267;22627;-63
2023/02/09 05:42:33;;;;;;;38.50;20.00;;;;;;;-11.55;100.00;102142.88;109610;1267;24243;-63
2023/02/09 05:45:01;;;;;;;37.70;20.30;;;;;;;-11.43;100.00;102142.82;107806;1270;25300;-63
2023/02/09 05:47:30;;;;;;;40.80;20.30;;;;;;;-11.33;100.00;102141.81;107970;1267;25319;-63
2023/02/09 05:49:58;;;;;;;47.20;21.80;;;;;;;-11.26;100.00;102144.42;107820;1266;25488;-64
2023/02/09 05:52:27;;;;;;;39.50;20.20;;;;;;;-11.19;100.00;102145.86;106885;1267;22638;-64
2023/02/09 05:54:55;;;;;;;48.10;22.20;;;;;;;-11.15;100.00;102146.36;106853;1267;26515;-63
2023/02/09 05:57:23;;;;;;;46.40;22.60;;;;;;;-11.15;100.00;102146.48;107691;1268;23332;-64
2023/02/09 05:59:55;;;;;;;44.10;21.20;;;;;;;-11.09;100.00;102147.83;107852;1267;22572;-63
2023/02/09 06:02:24;;;;;;;43.70;21.20;;;;;;;-11.00;100.00;102143.70;107972;1266;23234;-61
2023/02/09 06:04:53;;;;;;;49.00;22.90;;;;;;;-10.89;100.00;102141.73;110409;1275;22815;-62
2023/02/09 06:07:21;;;;;;;47.20;23.70;;;;;;;-10.79;100.00;102137.71;110555;1267;23294;-64
2023/02/09 06:09:49;;;;;;;45.40;22.70;;;;;;;-10.68;100.00;102136.77;110563;1267;22270;-64
2023/02/09 06:12:17;;;;;;;43.00;20.40;;;;;;;-10.55;100.00;102133.33;110490;1267;22221;-64
2023/02/09 06:14:46;;;;;;;41.90;21.80;;;;;;;-10.43;100.00;102130.61;110524;1273;22308;-63
2023/02/09 06:17:14;;;;;;;40.00;20.20;;;;;;;-10.37;100.00;102137.27;110510;1273;22544;-64
2023/02/09 06:19:43;;;;;;;40.70;20.90;;;;;;;-10.34;100.00;102132.05;110480;1268;22445;-63
2023/02/09 06:22:11;;;;;;;42.60;22.00;;;;;;;-10.34;100.00;102136.62;110475;1273;23302;-64
2023/02/09 06:24:40;;;;;;;36.10;19.30;;;;;;;-10.36;100.00;102139.88;110473;1269;22306;-65
2023/02/09 06:27:08;;;;;;;38.60;20.40;;;;;;;-10.38;100.00;102139.80;110432;1267;22401;-63
2023/02/09 06:29:37;;;;;;;40.40;21.30;;;;;;;-10.41;100.00;102139.60;110441;1266;23403;-64
2023/02/09 06:32:05;;;;;;;40.80;20.20;;;;;;;-10.43;100.00;102140.77;110470;1267;23262;-64
2023/02/09 06:34:34;;;;;;;42.60;20.80;;;;;;;-10.43;100.00;102142.52;110488;1266;23149;-64
2023/02/09 06:37:02;;;;;;;45.10;22.10;;;;;;;-10.38;100.00;102141.22;110527;1269;22278;-65
2023/02/09 06:39:30;;;;;;;42.80;21.70;;;;;;;-10.32;100.00;102135.44;110607;1273;22437;-65
2023/02/09 06:41:59;;;;;;;43.80;23.60;;;;;;;-10.22;100.00;102139.66;110557;1273;22442;-65
2023/02/09 06:44:27;;;;;;;46.60;24.30;;;;;;;-10.11;100.00;102138.86;110522;1274;22258;-62
2023/02/09 06:46:55;;;;;;;47.10;24.10;;;;;;;-9.95;100.00;102143.58;110522;1273;22188;-63
2023/02/09 06:49:25;;;;;;;49.80;25.50;;;;;;;-9.74;100.00;102146.50;110590;1267;22233;-63
2023/02/09 06:51:54;;;;;;;53.10;27.70;;;;;;;-9.58;100.00;102146.16;110592;1273;23109;-64
2023/02/09 06:54:23;;;;;;;45.10;25.00;;;;;;;-9.51;100.00;102150.11;110521;1273;22289;-63
2023/02/09 06:56:51;;;;;;;55.90;28.30;;;;;;;-9.43;100.00;102150.42;107828;1273;24248;-63
2023/02/09 06:59:19;;;;;;;56.70;29.80;;;;;;;-9.37;100.00;102149.73;107431;1274;26669;-62
2023/02/09 07:01:50;;;;;;;62.10;31.70;;;;;;;-9.31;100.00;102148.48;106762;1273;27824;-63
2023/02/09 07:04:22;;;;;;;65.20;33.30;;;;;;;-9.22;100.00;102156.05;106714;1270;25383;-62
2023/02/09 07:06:51;;;;;;;61.40;30.90;;;;;;;-9.09;100.00;102157.42;108055;1267;25506;-62
2023/02/09 07:09:19;;;;;;;63.80;31.90;;;;;;;-8.98;100.00;102152.21;108760;1273;25325;-62
2023/02/09 07:11:47;;;;;;;68.20;32.60;;;;;;;-8.91;100.00;102138.10;107063;1270;25512;-62
2023/02/09 07:14:16;;;;;;;67.40;30.90;;;;;;;-8.76;100.00;102144.25;107137;1267;25322;-63
2023/02/09 07:16:45;;;;;;;64.30;30.20;;;;;;;-8.54;100.00;102146.80;107523;1267;23937;-62
2023/02/09 07:19:13;;;;;;;76.70;35.60;;;;;;;-8.36;100.00;102145.20;107056;1273;25573;-63
2023/02/09 07:21:41;;;;;;;71.90;35.50;;;;;;;-8.25;100.00;102147.29;106810;1269;27566;-63
2023/02/09 07:24:10;;;;;;;74.70;33.40;;;;;;;-8.12;100.00;102148.98;107795;1273;22540;-63
2023/02/09 07:26:38;;;;;;;69.80;34.70;;;;;;;-7.98;100.00;102148.64;107627;1270;25568;-63
2023/02/09 07:29:06;;;;;;;77.30;35.80;;;;;;;-7.86;100.00;102147.86;106966;1267;25346;-63
2023/02/09 07:31:35;;;;;;;64.90;32.40;;;;;;;-7.73;100.00;102142.48;107051;1273;25986;-63
2023/02/09 07:34:04;;;;;;;60.90;29.40;;;;;;;-7.59;100.00;102139.98;106833;1271;25478;-63
2023/02/09 07:36:33;;;;;;;68.40;34.40;;;;;;;-7.45;100.00;102141.40;106839;1274;24572;-64
2023/02/09 07:39:02;;;;;;;56.10;29.40;;;;;;;-7.33;100.00;102136.92;106859;1270;26700;-63
2023/02/09 07:41:30;;;;;;;56.40;30.10;;;;;;;-7.24;100.00;102131.39;110499;1267;22379;-65
2023/02/09 07:43:58;;;;;;;63.90;33.70;;;;;;;-7.11;100.00;102137.23;110423;1270;22337;-62
2023/02/09 07:46:27;;;;;;;53.40;28.40;;;;;;;-6.96;100.00;102131.52;110485;1267;22508;-63
2023/02/09 07:48:56;;;;;;;54.00;29.90;;;;;;;-6.83;100.00;102131.63;110429;1266;22346;-63
2023/02/09 07:51:28;;;;;;;54.00;29.30;;;;;;;-6.71;100.00;102135.10;110494;1270;22349;-62
2023/02/09 07:53:57;;;;;;;58.70;31.20;;;;;;;-6.64;100.00;102132.98;110480;1267;22351;-64
2023/02/09 07:56:26;;;;;;;53.60;29.90;;;;;;;-6.56;100.00;102132.11;110468;1266;22216;-63
2023/02/09 07:58:54;;;;;;;57.40;30.80;;;;;;;-6.46;100.00;102126.14;110478;1267;22574;-62
2023/02/09 08:01:23;;;;;;;61.70;31.40;;;;;;;-6.33;100.00;102126.80;109989;1266;22548;-62
2023/02/09 08:03:51;;;;;;;54.70;28.70;;;;;;;-6.15;100.00;102127.52;107125;1273;22517;-62
2023/02/09 08:06:34;;;;;;;62.90;31.40;;;;;;;-5.96;100.00;102132.52;108064;1266;23794;-62
2023/02/09 08:09:12;;;;;;;58.30;30.60;;;;;;;-5.83;100.00;102137.77;108725;1267;25468;-62
2023/02/09 08:11:52;;;;;;;53.80;30.40;;;;;;;-5.75;100.00;102141.95;106868;1267;25335;-62
2023/02/09 08:14:24;;;;;;;66.80;36.20;;;;;;;-5.66;100.00;102142.01;108957;1270;25053;-62
2023/02/09 08:17:18;;;;;;;57.30;32.50;;;;;;;-5.55;100.00;102142.47;107156;1270;23732;-63
2023/02/09 08:19:45;;;;;;;60.90;31.10;;;;;;;-5.35;100.00;102145.77;107380;1267;28884;-63
2023/02/09 08:22:13;;;;;;;58.40;33.00;;;;;;;-5.19;100.00;102144.78;106737;1267;26297;-62
2023/02/09 08:24:42;;;;;;;57.00;31.90;;;;;;;-5.02;100.00;102142.12;108360;1267;25352;-63
2023/02/09 08:27:10;;;;;;;66.00;35.60;;;;;;;-4.85;100.00;102132.69;107507;1267;23458;-63
2023/02/09 08:29:38;;;;;;;62.00;34.90;;;;;;;-4.68;100.00;102129.09;107271;1266;25312;-62
2023/02/09 08:32:06;;;;;;;60.00;33.50;;;;;;;-4.45;100.00;102129.86;110311;1268;23179;-64
2023/02/09 08:34:35;;;;;;;60.20;33.40;;;;;;;-4.10;100.00;102130.10;110438;1267;22469;-63
2023/02/09 08:37:04;;;;;;;67.70;38.20;;;;;;;-3.82;100.00;102125.60;110489;1267;22354;-63
2023/02/09 08:39:32;;;;;;;67.00;35.60;;;;;;;-3.64;100.00;102128.05;110454;1273;22365;-63
2023/02/09 08:42:00;;;;;;;57.00;33.50;;;;;;;-3.44;100.00;102129.64;110547;1270;22255;-63
2023/02/09 08:44:28;;;;;;;57.60;32.40;;;;;;;-3.22;100.00;102130.35;110589;1271;22294;-63
2023/02/09 08:46:56;;;;;;;59.40;35.00;;;;;;;-3.12;100.00;102131.73;110507;1266;23309;-63
2023/02/09 08:49:25;;;;;;;64.90;37.40;;;;;;;-3.10;100.00;102127.19;110394;1267;22409;-63
2023/02/09 08:51:54;;;;;;;63.90;37.70;;;;;;;-3.04;100.00;102124.73;110462;1269;22192;-63
2023/02/09 08:54:23;;;;;;;63.10;35.50;;;;;;;-2.86;100.00;102122.02;110452;1267;22296;-63
2023/02/09 08:56:51;;;;;;;56.40;34.70;;;;;;;-2.73;100.00;102122.60;110437;1273;22375;-63
2023/02/09 08:59:20;;;;;;;59.80;36.70;;;;;;;-2.58;100.00;102117.06;110454;1269;22319;-63
2023/02/09 09:01:49;;;;;;;59.40;34.80;;;;;;;-2.50;100.00;102115.73;110399;1267;23237;-64
2023/02/09 09:04:17;;;;;;;59.40;35.30;;;;;;;-2.45;100.00;102112.26;110470;1266;22482;-63
2023/02/09 09:06:46;;;;;;;58.20;34.60;;;;;;;-2.36;100.00;102106.85;110519;1273;22242;-65
2023/02/09 09:09:14;;;;;;;55.80;33.50;;;;;;;-2.12;100.00;102105.68;110473;1273;23029;-65
2023/02/09 09:11:42;;;;;;;50.60;31.80;;;;;;;-1.87;100.00;102104.02;110446;1267;22389;-65
2023/02/09 09:14:10;;;;;;;50.00;30.50;;;;;;;-1.71;100.00;102095.27;110412;1267;22390;-63
2023/02/09 09:16:42;;;;;;;47.20;30.80;;;;;;;-1.68;100.00;102088.75;110498;1267;22192;-64
2023/02/09 09:19:10;;;;;;;50.20;29.40;;;;;;;-1.61;100.00;102086.23;110479;1267;22373;-63
2023/02/09 09:21:38;;;;;;;59.00;36.90;;;;;;;-1.62;100.00;102082.19;110383;1270;22292;-64
2023/02/09 09:24:07;;;;;;;61.30;37.20;;;;;;;-1.70;100.00;102074.88;110492;1267;22883;-64
2023/02/09 09:26:36;;;;;;;60.10;36.90;;;;;;;-1.68;100.00;102069.91;110460;1267;22360;-65
2023/02/09 09:29:04;;;;;;;56.50;34.20;;;;;;;-1.59;100.00;102066.09;110600;1273;22964;-63
2023/02/09 09:31:32;;;;;;;58.70;36.40;;;;;;;-1.51;100.00;102055.23;110199;1267;417412;-63
2023/02/09 09:35:28;;;;;;;58.20;35.70;;;;;;;-1.44;100.00;102035.75;105778;1305;545733;-63
2023/02/09 09:37:57;;;;;;;65.40;37.80;;;;;;;-1.52;100.00;102036.95;109415;1283;23262;-64
2023/02/09 09:40:27;;;;;;;59.90;36.00;;;;;;;-1.55;100.00;102027.74;109439;1289;22221;-64
2023/02/09 09:42:58;;;;;;;50.30;30.80;;;;;;;-1.47;100.00;102029.24;109432;1283;22341;-64
2023/02/09 09:45:27;;;;;;;44.00;27.60;;;;;;;-1.41;100.00;102023.52;109379;1289;22322;-65
2023/02/09 09:47:55;;;;;;;47.40;28.10;;;;;;;-1.42;100.00;102022.90;109436;1285;22212;-64
2023/02/09 09:50:31;;;;;;;46.50;29.10;;;;;;;-1.49;100.00;102016.39;109463;1285;22384;-64
2023/02/09 09:53:04;;;;;;;45.70;28.50;;;;;;;-1.49;100.00;102013.52;109513;1285;22311;-65
2023/02/09 09:55:33;;;;;;;40.70;25.30;;;;;;;-1.42;100.00;102013.81;109500;1287;22417;-65
2023/02/09 09:58:04;;;;;;;42.90;26.90;;;;;;;-1.37;100.00;102007.84;109475;1287;22416;-64
2023/02/09 10:00:37;;;;;;;42.60;24.90;;;;;;;-1.35;100.00;101999.95;109567;1287;22202;-65
2023/02/09 10:03:14;;;;;;;45.50;26.40;;;;;;;-1.26;100.00;101996.27;107221;1287;24043;-64
2023/02/09 10:05:42;;;;;;;38.10;24.50;;;;;;;-1.10;100.00;101988.73;106281;1287;25354;-64
2023/02/09 10:08:33;;;;;;;44.60;26.60;;;;;;;-0.99;100.00;101986.78;106463;1284;22994;-64
2023/02/09 10:11:07;;;;;;;40.80;24.80;;;;;;;-0.89;100.00;101983.38;106928;1279;23102;-65
2023/02/09 10:13:43;;;;;;;41.00;25.70;;;;;;;-0.86;100.00;101980.60;109859;1284;22286;-65
2023/02/09 10:16:18;;;;;;;38.40;25.00;;;;;;;-0.79;100.00;101981.71;109811;1282;22758;-66
2023/02/09 10:19:00;;;;;;;42.10;25.70;;;;;;;-0.68;100.00;101975.46;109801;1279;22226;-67
2023/02/09 10:21:30;;;;;;;34.30;22.60;;;;;;;-0.69;100.00;101969.92;109778;1277;22253;-67
2023/02/09 10:23:58;;;;;;;32.60;21.20;;;;;;;-0.73;100.00;101968.13;109841;1280;22997;-67
2023/02/09 10:26:29;;;;;;;33.50;20.70;;;;;;;-0.84;100.00;101961.90;109852;1284;22734;-65
2023/02/09 10:29:06;;;;;;;30.40;17.60;;;;;;;-0.98;100.00;101959.32;109743;1276;22300;-64
2023/02/09 10:31:39;;;;;;;29.30;18.30;;;;;;;-1.16;100.00;101951.02;109791;1283;22269;-66
2023/02/09 10:34:07;;;;;;;29.10;18.80;;;;;;;-1.25;100.00;101940.81;109657;1284;22467;-63
2023/02/09 10:36:45;;;;;;;30.20;19.00;;;;;;;-1.31;100.00;101936.00;109809;1284;22232;-63
2023/02/09 10:39:16;;;;;;;30.10;17.50;;;;;;;-1.27;100.00;101926.17;109618;1284;23798;-64
2023/02/09 10:41:47;;;;;;;30.90;18.50;;;;;;;-1.17;100.00;101922.77;109823;1277;22410;-66
2023/02/09 10:44:20;;;;;;;33.20;19.80;;;;;;;-1.07;100.00;101920.49;107465;1277;22532;-65
2023/02/09 10:46:48;;;;;;;31.90;20.30;;;;;;;-0.98;100.00;101914.73;106010;1277;24241;-65
2023/02/09 10:49:38;;;;;;;31.00;19.70;;;;;;;-0.88;100.00;101914.51;109562;1283;23133;-63
2023/02/09 10:52:14;;;;;;;41.10;24.70;;;;;;;-0.72;100.00;101913.77;109811;1282;22283;-64
2023/02/09 10:54:47;;;;;;;44.80;24.60;;;;;;;-0.55;100.00;101915.52;107626;1284;23561;-63
2023/02/09 10:57:33;;;;;;;42.70;25.40;;;;;;;-0.39;100.00;101912.92;106421;1267;22543;-66
2023/02/09 11:00:16;;;;;;;44.10;27.20;;;;;;;-0.29;100.00;101908.46;106312;1279;25347;-65
2023/02/09 11:02:50;;;;;;;47.70;28.60;;;;;;;-0.24;100.00;101901.46;106361;1283;23268;-65
2023/02/09 11:05:21;;;;;;;40.90;27.00;;;;;;;-0.14;100.00;101904.08;106472;1284;22553;-64
2023/02/09 11:08:08;;;;;;;42.80;26.90;;;;;;;-0.05;100.00;101902.29;106290;1282;22534;-64
2023/02/09 11:10:42;;;;;;;44.50;26.80;;;;;;;0.04;100.00;101894.85;109828;1284;22170;-65
2023/02/09 11:13:24;;;;;;;41.80;26.40;;;;;;;0.01;100.00;101891.88;109711;1284;22433;-64
2023/02/09 11:16:14;;;;;;;39.80;26.30;;;;;;;-0.00;100.00;101891.09;109815;1284;23308;-66